sensor_id;sensor_type;location;lat;lon;timestamp;temperature;humidity
2825;DHT22;1420;51.324;12.344;2023-01-24T00:01:11;1.40;99.90
2825;DHT22;1420;51.324;12.344;2023-01-24T00:03:39;1.30;99.90
2825;DHT22;1420;51.324;12.344;2023-01-24T00:06:07;1.30;99.90
2825;DHT22;1420;51.324;12.344;2023-01-24T00:08:34;1.40;99.90
2825;DHT22;1420;51.324;12.344;2023-01-24T00:11:03;1.30;99.90
2825;DHT22;1420;51.324;12.344;2023-01-24T00:13:29;1.30;99.90
2825;DHT22;1420;51.324;12.344;2023-01-24T00:16:03;1.40;99.90
2825;DHT22;1420;51.324;12.344;2023-01-24T00:18:29;1.30;99.90
2825;DHT22;1420;51.324;12.344;2023-01-24T00:21:00;1.30;99.90
2825;DHT22;1420;51.324;12.344;2023-01-24T00:23:26;1.30;99.90
2825;DHT22;1420;51.324;12.344;2023-01-24T00:25:54;1.30;99.90
2825;DHT22;1420;51.324;12.344;2023-01-24T00:28:22;1.30;99.90
2825;DHT22;1420;51.324;12.344;2023-01-24T00:30:49;1.30;99.90
2825;DHT22;1420;51.324;12.344;2023-01-24T00:33:16;1.30;99.90
2825;DHT22;1420;51.324;12.344;2023-01-24T00:35:43;1.30;99.90
2825;DHT22;1420;51.324;12.344;2023-01-24T00:38:11;1.30;99.90
2825;DHT22;1420;51.324;12.344;2023-01-24T00:40:38;1.20;99.90
2825;DHT22;1420;51.324;12.344;2023-01-24T00:43:05;1.20;99.90
2825;DHT22;1420;51.324;12.344;2023-01-24T00:45:34;1.20;99.90
2825;DHT22;1420;51.324;12.344;2023-01-24T00:47:59;1.20;99.90
2825;DHT22;1420;51.324;12.344;2023-01-24T00:50:27;1.30;99.90
2825;DHT22;1420;51.324;12.344;2023-01-24T00:52:54;1.30;99.90
2825;DHT22;1420;51.324;12.344;2023-01-24T00:55:21;1.20;99.90
2825;DHT22;1420;51.324;12.344;2023-01-24T00:57:48;1.30;99.90
2825;DHT22;1420;51.324;12.344;2023-01-24T01:00:16;1.30;99.90
2825;DHT22;1420;51.324;12.344;2023-01-24T01:02:43;1.20;99.90
2825;DHT22;1420;51.324;12.344;2023-01-24T01:05:10;1.20;99.90
2825;DHT22;1420;51.324;12.344;2023-01-24T01:07:37;1.20;99.90
2825;DHT22;1420;51.324;12.344;2023-01-24T01:10:05;1.30;99.90
2825;DHT22;1420;51.324;12.344;2023-01-24T01:12:32;1.30;99.90
2825;DHT22;1420;51.324;12.344;2023-01-24T01:14:59;1.20;99.90
2825;DHT22;1420;51.324;12.344;2023-01-24T01:17:26;1.20;99.90
2825;DHT22;1420;51.324;12.344;2023-01-24T01:19:54;1.30;99.90
2825;DHT22;1420;51.324;12.344;2023-01-24T01:22:21;1.40;99.90
2825;DHT22;1420;51.324;12.344;2023-01-24T01:24:49;1.40;99.90
2825;DHT22;1420;51.324;12.344;2023-01-24T01:27:17;1.40;99.90
2825;DHT22;1420;51.324;12.344;2023-01-24T01:29:45;1.30;99.90
2825;DHT22;1420;51.324;12.344;2023-01-24T01:32:12;1.30;99.90
2825;DHT22;1420;51.324;12.344;2023-01-24T01:34:39;1.40;99.90
2825;DHT22;1420;51.324;12.344;2023-01-24T01:37:07;1.30;99.90
2825;DHT22;1420;51.324;12.344;2023-01-24T01:39:34;1.30;99.90
2825;DHT22;1420;51.324;12.344;2023-01-24T01:42:01;1.30;99.90
2825;DHT22;1420;51.324;12.344;2023-01-24T01:44:29;1.30;99.90
2825;DHT22;1420;51.324;12.344;2023-01-24T01:47:01;1.30;99.90
2825;DHT22;1420;51.324;12.344;2023-01-24T01:49:28;1.30;99.90
2825;DHT22;1420;51.324;12.344;2023-01-24T01:51:58;1.30;99.90
2825;DHT22;1420;51.324;12.344;2023-01-24T01:54:26;1.40;99.90
2825;DHT22;1420;51.324;12.344;2023-01-24T01:56:54;1.40;99.90
2825;DHT22;1420;51.324;12.344;2023-01-24T01:59:21;1.40;99.90
2825;DHT22;1420;51.324;12.344;2023-01-24T02:01:46;1.30;99.90
2825;DHT22;1420;51.324;12.344;2023-01-24T02:04:16;1.30;99.90
2825;DHT22;1420;51.324;12.344;2023-01-24T02:06:52;1.40;99.90
2825;DHT22;1420;51.324;12.344;2023-01-24T02:09:20;1.40;99.90
2825;DHT22;1420;51.324;12.344;2023-01-24T02:11:46;1.40;99.90
2825;DHT22;1420;51.324;12.344;2023-01-24T02:14:14;1.40;99.90
2825;DHT22;1420;51.324;12.344;2023-01-24T02:16:46;1.60;99.90
2825;DHT22;1420;51.324;12.344;2023-01-24T02:19:22;1.40;99.90
2825;DHT22;1420;51.324;12.344;2023-01-24T02:21:46;1.40;99.90
2825;DHT22;1420;51.324;12.344;2023-01-24T02:24:19;1.40;99.90
2825;DHT22;1420;51.324;12.344;2023-01-24T02:26:44;1.40;99.90
2825;DHT22;1420;51.324;12.344;2023-01-24T02:29:12;1.30;99.90
2825;DHT22;1420;51.324;12.344;2023-01-24T02:31:52;1.30;99.90
2825;DHT22;1420;51.324;12.344;2023-01-24T02:34:18;1.30;99.90
2825;DHT22;1420;51.324;12.344;2023-01-24T02:36:45;1.30;99.90
2825;DHT22;1420;51.324;12.344;2023-01-24T02:39:14;1.30;99.90
2825;DHT22;1420;51.324;12.344;2023-01-24T02:41:45;1.40;99.90
2825;DHT22;1420;51.324;12.344;2023-01-24T02:44:14;1.30;99.90
2825;DHT22;1420;51.324;12.344;2023-01-24T02:46:43;1.40;99.90
2825;DHT22;1420;51.324;12.344;2023-01-24T02:49:10;1.50;99.90
2825;DHT22;1420;51.324;12.344;2023-01-24T02:51:38;1.40;99.90
2825;DHT22;1420;51.324;12.344;2023-01-24T02:54:11;1.40;99.90
2825;DHT22;1420;51.324;12.344;2023-01-24T02:56:38;1.40;99.90
2825;DHT22;1420;51.324;12.344;2023-01-24T02:59:23;1.40;99.90
2825;DHT22;1420;51.324;12.344;2023-01-24T03:01:51;1.30;99.90
2825;DHT22;1420;51.324;12.344;2023-01-24T03:04:19;1.30;99.90
2825;DHT22;1420;51.324;12.344;2023-01-24T03:06:47;1.50;99.90
2825;DHT22;1420;51.324;12.344;2023-01-24T03:09:15;1.40;99.90
2825;DHT22;1420;51.324;12.344;2023-01-24T03:11:46;1.40;99.90
2825;DHT22;1420;51.324;12.344;2023-01-24T03:14:15;1.50;99.90
2825;DHT22;1420;51.324;12.344;2023-01-24T03:16:48;1.40;99.90
2825;DHT22;1420;51.324;12.344;2023-01-24T03:19:20;1.50;99.90
2825;DHT22;1420;51.324;12.344;2023-01-24T03:21:53;1.40;99.90
2825;DHT22;1420;51.324;12.344;2023-01-24T03:24:26;1.30;99.90
2825;DHT22;1420;51.324;12.344;2023-01-24T03:26:59;1.40;99.90
2825;DHT22;1420;51.324;12.344;2023-01-24T03:29:32;1.30;99.90
2825;DHT22;1420;51.324;12.344;2023-01-24T03:32:05;1.30;99.90
2825;DHT22;1420;51.324;12.344;2023-01-24T03:34:38;1.40;99.90
2825;DHT22;1420;51.324;12.344;2023-01-24T03:37:11;1.30;99.90
2825;DHT22;1420;51.324;12.344;2023-01-24T03:39:38;1.30;99.90
2825;DHT22;1420;51.324;12.344;2023-01-24T03:42:10;1.40;99.90
2825;DHT22;1420;51.324;12.344;2023-01-24T03:44:38;1.50;99.90
2825;DHT22;1420;51.324;12.344;2023-01-24T03:47:06;1.40;99.90
2825;DHT22;1420;51.324;12.344;2023-01-24T03:49:35;1.20;99.90
2825;DHT22;1420;51.324;12.344;2023-01-24T03:52:07;1.20;99.90
2825;DHT22;1420;51.324;12.344;2023-01-24T03:54:40;1.40;99.90
2825;DHT22;1420;51.324;12.344;2023-01-24T03:57:08;1.30;99.90
2825;DHT22;1420;51.324;12.344;2023-01-24T03:59:35;1.30;99.90
2825;DHT22;1420;51.324;12.344;2023-01-24T04:02:03;1.30;99.90
2825;DHT22;1420;51.324;12.344;2023-01-24T04:04:31;1.10;99.90
2825;DHT22;1420;51.324;12.344;2023-01-24T04:07:04;1.10;99.90
2825;DHT22;1420;51.324;12.344;2023-01-24T04:09:31;1.20;99.90
2825;DHT22;1420;51.324;12.344;2023-01-24T04:11:59;1.20;99.90
2825;DHT22;1420;51.324;12.344;2023-01-24T04:14:26;1.20;99.90
2825;DHT22;1420;51.324;12.344;2023-01-24T04:16:54;1.10;99.90
2825;DHT22;1420;51.324;12.344;2023-01-24T04:19:22;1.20;99.90
2825;DHT22;1420;51.324;12.344;2023-01-24T04:21:50;1.10;99.90
2825;DHT22;1420;51.324;12.344;2023-01-24T04:24:17;1.20;99.90
2825;DHT22;1420;51.324;12.344;2023-01-24T04:26:45;1.20;99.90
2825;DHT22;1420;51.324;12.344;2023-01-24T04:29:13;1.30;99.90
2825;DHT22;1420;51.324;12.344;2023-01-24T04:31:40;1.20;99.90
2825;DHT22;1420;51.324;12.344;2023-01-24T04:34:07;1.20;99.90
2825;DHT22;1420;51.324;12.344;2023-01-24T04:36:35;1.10;99.90
2825;DHT22;1420;51.324;12.344;2023-01-24T04:39:02;1.10;99.90
2825;DHT22;1420;51.324;12.344;2023-01-24T04:41:30;1.20;99.90
2825;DHT22;1420;51.324;12.344;2023-01-24T04:43:57;1.20;99.90
2825;DHT22;1420;51.324;12.344;2023-01-24T04:46:24;1.20;99.90
2825;DHT22;1420;51.324;12.344;2023-01-24T04:48:52;1.30;99.90
2825;DHT22;1420;51.324;12.344;2023-01-24T04:51:20;1.20;99.90
2825;DHT22;1420;51.324;12.344;2023-01-24T04:53:48;1.20;99.90
2825;DHT22;1420;51.324;12.344;2023-01-24T04:56:16;1.20;99.90
2825;DHT22;1420;51.324;12.344;2023-01-24T04:58:44;1.20;99.90
2825;DHT22;1420;51.324;12.344;2023-01-24T05:01:11;1.20;99.90
2825;DHT22;1420;51.324;12.344;2023-01-24T05:03:38;1.10;99.90
2825;DHT22;1420;51.324;12.344;2023-01-24T05:06:05;1.10;99.90
2825;DHT22;1420;51.324;12.344;2023-01-24T05:08:33;1.20;99.90
2825;DHT22;1420;51.324;12.344;2023-01-24T05:11:01;1.20;99.90
2825;DHT22;1420;51.324;12.344;2023-01-24T05:13:27;1.10;99.90
2825;DHT22;1420;51.324;12.344;2023-01-24T05:15:54;1.10;99.90
2825;DHT22;1420;51.324;12.344;2023-01-24T05:18:21;1.10;99.90
2825;DHT22;1420;51.324;12.344;2023-01-24T05:20:49;1.10;99.90
2825;DHT22;1420;51.324;12.344;2023-01-24T05:23:17;1.10;99.90
2825;DHT22;1420;51.324;12.344;2023-01-24T05:25:45;1.40;99.90
2825;DHT22;1420;51.324;12.344;2023-01-24T05:28:12;1.30;99.90
2825;DHT22;1420;51.324;12.344;2023-01-24T05:30:39;1.70;99.90
2825;DHT22;1420;51.324;12.344;2023-01-24T05:33:06;1.60;99.90
2825;DHT22;1420;51.324;12.344;2023-01-24T05:35:33;1.40;99.90
2825;DHT22;1420;51.324;12.344;2023-01-24T05:38:01;2.00;99.90
2825;DHT22;1420;51.324;12.344;2023-01-24T05:40:29;1.90;99.90
2825;DHT22;1420;51.324;12.344;2023-01-24T05:42:56;1.90;99.90
2825;DHT22;1420;51.324;12.344;2023-01-24T05:45:24;1.70;99.90
2825;DHT22;1420;51.324;12.344;2023-01-24T05:47:52;1.40;99.90
2825;DHT22;1420;51.324;12.344;2023-01-24T05:50:20;1.40;99.90
2825;DHT22;1420;51.324;12.344;2023-01-24T05:52:47;1.40;99.90
2825;DHT22;1420;51.324;12.344;2023-01-24T05:55:14;1.30;99.90
2825;DHT22;1420;51.324;12.344;2023-01-24T05:57:41;1.20;99.90
2825;DHT22;1420;51.324;12.344;2023-01-24T06:00:10;1.10;99.90
2825;DHT22;1420;51.324;12.344;2023-01-24T06:02:38;1.10;99.90
2825;DHT22;1420;51.324;12.344;2023-01-24T06:05:07;1.10;99.90
2825;DHT22;1420;51.324;12.344;2023-01-24T06:07:34;1.00;99.90
2825;DHT22;1420;51.324;12.344;2023-01-24T06:10:01;1.10;99.90
2825;DHT22;1420;51.324;12.344;2023-01-24T06:12:28;1.10;99.90
2825;DHT22;1420;51.324;12.344;2023-01-24T06:14:56;1.10;99.90
2825;DHT22;1420;51.324;12.344;2023-01-24T06:17:24;1.00;99.90
2825;DHT22;1420;51.324;12.344;2023-01-24T06:19:52;1.00;99.90
2825;DHT22;1420;51.324;12.344;2023-01-24T06:22:25;1.00;99.90
2825;DHT22;1420;51.324;12.344;2023-01-24T06:24:51;1.10;99.90
2825;DHT22;1420;51.324;12.344;2023-01-24T06:27:19;1.10;99.90
2825;DHT22;1420;51.324;12.344;2023-01-24T06:29:47;1.10;99.90
2825;DHT22;1420;51.324;12.344;2023-01-24T06:32:21;1.00;99.90
2825;DHT22;1420;51.324;12.344;2023-01-24T06:37:24;1.00;99.90
2825;DHT22;1420;51.324;12.344;2023-01-24T06:39:49;1.00;99.90
2825;DHT22;1420;51.324;12.344;2023-01-24T06:42:18;1.10;99.90
2825;DHT22;1420;51.324;12.344;2023-01-24T06:44:45;1.10;99.90
2825;DHT22;1420;51.324;12.344;2023-01-24T06:47:12;1.30;99.90
2825;DHT22;1420;51.324;12.344;2023-01-24T06:49:40;1.20;99.90
2825;DHT22;1420;51.324;12.344;2023-01-24T06:52:08;1.20;99.90
2825;DHT22;1420;51.324;12.344;2023-01-24T06:54:35;1.20;99.90
2825;DHT22;1420;51.324;12.344;2023-01-24T06:57:03;1.20;99.90
2825;DHT22;1420;51.324;12.344;2023-01-24T06:59:30;1.20;99.90
2825;DHT22;1420;51.324;12.344;2023-01-24T07:01:57;1.20;99.90
2825;DHT22;1420;51.324;12.344;2023-01-24T07:04:25;1.10;99.90
2825;DHT22;1420;51.324;12.344;2023-01-24T07:06:53;1.20;99.90
2825;DHT22;1420;51.324;12.344;2023-01-24T07:09:21;1.10;99.90
2825;DHT22;1420;51.324;12.344;2023-01-24T07:11:48;1.10;99.90
2825;DHT22;1420;51.324;12.344;2023-01-24T07:14:15;1.30;99.90
2825;DHT22;1420;51.324;12.344;2023-01-24T07:16:43;1.20;99.90
2825;DHT22;1420;51.324;12.344;2023-01-24T07:19:13;1.20;99.90
2825;DHT22;1420;51.324;12.344;2023-01-24T07:21:39;1.20;99.90
2825;DHT22;1420;51.324;12.344;2023-01-24T07:24:14;1.10;99.90
2825;DHT22;1420;51.324;12.344;2023-01-24T07:26:41;1.30;99.90
2825;DHT22;1420;51.324;12.344;2023-01-24T07:29:08;1.20;99.90
2825;DHT22;1420;51.324;12.344;2023-01-24T07:31:35;1.10;99.90
2825;DHT22;1420;51.324;12.344;2023-01-24T07:34:02;1.10;99.90
2825;DHT22;1420;51.324;12.344;2023-01-24T07:36:29;1.20;99.90
2825;DHT22;1420;51.324;12.344;2023-01-24T07:38:57;1.20;99.90
2825;DHT22;1420;51.324;12.344;2023-01-24T07:41:24;1.30;99.90
2825;DHT22;1420;51.324;12.344;2023-01-24T07:43:52;1.10;99.90
2825;DHT22;1420;51.324;12.344;2023-01-24T07:46:20;1.10;99.90
2825;DHT22;1420;51.324;12.344;2023-01-24T07:48:47;1.20;99.90
2825;DHT22;1420;51.324;12.344;2023-01-24T07:51:15;1.10;99.90
2825;DHT22;1420;51.324;12.344;2023-01-24T07:53:43;1.10;99.90
2825;DHT22;1420;51.324;12.344;2023-01-24T07:56:10;1.10;99.90
2825;DHT22;1420;51.324;12.344;2023-01-24T07:58:37;1.00;99.90
2825;DHT22;1420;51.324;12.344;2023-01-24T08:01:04;1.10;99.90
2825;DHT22;1420;51.324;12.344;2023-01-24T08:03:31;1.10;99.90
2825;DHT22;1420;51.324;12.344;2023-01-24T08:05:59;1.10;99.90
2825;DHT22;1420;51.324;12.344;2023-01-24T08:08:27;1.10;99.90
2825;DHT22;1420;51.324;12.344;2023-01-24T08:10:54;1.30;99.90
2825;DHT22;1420;51.324;12.344;2023-01-24T08:13:21;1.30;99.90
2825;DHT22;1420;51.324;12.344;2023-01-24T08:15:48;1.20;99.90
2825;DHT22;1420;51.324;12.344;2023-01-24T08:18:16;1.10;99.90
2825;DHT22;1420;51.324;12.344;2023-01-24T08:20:43;1.20;99.90
2825;DHT22;1420;51.324;12.344;2023-01-24T08:23:10;1.00;99.90
2825;DHT22;1420;51.324;12.344;2023-01-24T08:25:37;1.00;99.90
2825;DHT22;1420;51.324;12.344;2023-01-24T08:28:04;1.00;99.90
2825;DHT22;1420;51.324;12.344;2023-01-24T08:30:32;1.00;99.90
2825;DHT22;1420;51.324;12.344;2023-01-24T08:33:01;0.90;99.90
2825;DHT22;1420;51.324;12.344;2023-01-24T08:35:28;0.90;99.90
2825;DHT22;1420;51.324;12.344;2023-01-24T08:37:55;0.90;99.90
2825;DHT22;1420;51.324;12.344;2023-01-24T08:40:22;1.00;99.90
2825;DHT22;1420;51.324;12.344;2023-01-24T08:42:49;1.00;99.90
2825;DHT22;1420;51.324;12.344;2023-01-24T08:45:16;1.00;99.90
2825;DHT22;1420;51.324;12.344;2023-01-24T08:47:44;1.10;99.90
2825;DHT22;1420;51.324;12.344;2023-01-24T08:50:12;1.00;99.90
2825;DHT22;1420;51.324;12.344;2023-01-24T08:52:39;1.00;99.90
2825;DHT22;1420;51.324;12.344;2023-01-24T08:55:06;1.10;99.90
2825;DHT22;1420;51.324;12.344;2023-01-24T08:57:33;1.10;99.90
2825;DHT22;1420;51.324;12.344;2023-01-24T09:00:02;1.00;99.90
2825;DHT22;1420;51.324;12.344;2023-01-24T09:02:29;0.90;99.90
2825;DHT22;1420;51.324;12.344;2023-01-24T09:04:57;1.10;99.90
2825;DHT22;1420;51.324;12.344;2023-01-24T09:07:24;1.00;99.90
2825;DHT22;1420;51.324;12.344;2023-01-24T09:09:51;1.00;99.90
2825;DHT22;1420;51.324;12.344;2023-01-24T09:12:19;1.00;99.90
2825;DHT22;1420;51.324;12.344;2023-01-24T09:14:47;1.10;99.90
2825;DHT22;1420;51.324;12.344;2023-01-24T09:17:15;1.10;99.90
2825;DHT22;1420;51.324;12.344;2023-01-24T09:19:42;1.00;99.90
2825;DHT22;1420;51.324;12.344;2023-01-24T09:22:09;1.10;99.90
2825;DHT22;1420;51.324;12.344;2023-01-24T09:24:36;1.10;99.90
2825;DHT22;1420;51.324;12.344;2023-01-24T09:27:03;1.10;99.90
2825;DHT22;1420;51.324;12.344;2023-01-24T09:29:31;1.20;99.90
2825;DHT22;1420;51.324;12.344;2023-01-24T09:31:59;1.10;99.90
2825;DHT22;1420;51.324;12.344;2023-01-24T09:34:26;1.10;99.90
2825;DHT22;1420;51.324;12.344;2023-01-24T09:36:53;1.20;99.90
2825;DHT22;1420;51.324;12.344;2023-01-24T09:39:20;1.20;99.90
2825;DHT22;1420;51.324;12.344;2023-01-24T09:42:10;1.30;99.90
2825;DHT22;1420;51.324;12.344;2023-01-24T09:44:42;1.30;99.90
2825;DHT22;1420;51.324;12.344;2023-01-24T09:47:20;1.20;99.90
2825;DHT22;1420;51.324;12.344;2023-01-24T09:49:50;1.40;99.90
2825;DHT22;1420;51.324;12.344;2023-01-24T09:52:26;1.30;99.90
2825;DHT22;1420;51.324;12.344;2023-01-24T09:54:54;1.30;99.90
2825;DHT22;1420;51.324;12.344;2023-01-24T09:57:25;1.20;99.90
2825;DHT22;1420;51.324;12.344;2023-01-24T09:59:50;1.10;99.90
2825;DHT22;1420;51.324;12.344;2023-01-24T10:02:18;1.20;99.90
2825;DHT22;1420;51.324;12.344;2023-01-24T10:04:44;1.20;99.90
2825;DHT22;1420;51.324;12.344;2023-01-24T10:07:15;1.20;99.90
2825;DHT22;1420;51.324;12.344;2023-01-24T10:09:51;1.30;99.90
2825;DHT22;1420;51.324;12.344;2023-01-24T10:15:13;1.20;99.90
2825;DHT22;1420;51.324;12.344;2023-01-24T10:17:47;1.30;99.90
2825;DHT22;1420;51.324;12.344;2023-01-24T10:20:31;1.40;99.90
2825;DHT22;1420;51.324;12.344;2023-01-24T10:23:02;1.40;99.90
2825;DHT22;1420;51.324;12.344;2023-01-24T10:28:13;1.30;99.90
2825;DHT22;1420;51.324;12.344;2023-01-24T10:30:40;1.30;99.90
2825;DHT22;1420;51.324;12.344;2023-01-24T10:33:11;1.40;99.90
2825;DHT22;1420;51.324;12.344;2023-01-24T10:35:37;1.40;99.90
2825;DHT22;1420;51.324;12.344;2023-01-24T10:38:04;1.40;99.90
2825;DHT22;1420;51.324;12.344;2023-01-24T10:40:30;1.50;99.90
2825;DHT22;1420;51.324;12.344;2023-01-24T10:43:03;1.40;99.90
2825;DHT22;1420;51.324;12.344;2023-01-24T10:45:50;1.40;99.90
2825;DHT22;1420;51.324;12.344;2023-01-24T10:51:19;1.60;99.90
2825;DHT22;1420;51.324;12.344;2023-01-24T10:53:45;1.50;99.90
2825;DHT22;1420;51.324;12.344;2023-01-24T10:56:13;1.60;99.90
2825;DHT22;1420;51.324;12.344;2023-01-24T10:58:44;1.70;99.90
2825;DHT22;1420;51.324;12.344;2023-01-24T11:01:17;1.50;99.90
2825;DHT22;1420;51.324;12.344;2023-01-24T11:03:47;1.60;99.90
2825;DHT22;1420;51.324;12.344;2023-01-24T11:06:33;1.60;99.90
2825;DHT22;1420;51.324;12.344;2023-01-24T11:09:04;1.70;99.90
2825;DHT22;1420;51.324;12.344;2023-01-24T11:11:30;1.60;99.90
2825;DHT22;1420;51.324;12.344;2023-01-24T11:13:57;1.70;99.90
2825;DHT22;1420;51.324;12.344;2023-01-24T11:16:26;1.60;99.90
2825;DHT22;1420;51.324;12.344;2023-01-24T11:18:52;1.60;99.90
2825;DHT22;1420;51.324;12.344;2023-01-24T11:21:19;1.60;99.90
2825;DHT22;1420;51.324;12.344;2023-01-24T11:23:45;1.60;99.90
2825;DHT22;1420;51.324;12.344;2023-01-24T11:26:24;1.60;99.90
2825;DHT22;1420;51.324;12.344;2023-01-24T11:28:57;1.80;99.90
2825;DHT22;1420;51.324;12.344;2023-01-24T11:31:43;1.80;99.90
2825;DHT22;1420;51.324;12.344;2023-01-24T11:34:20;1.80;99.90
2825;DHT22;1420;51.324;12.344;2023-01-24T11:39:34;1.80;99.90
2825;DHT22;1420;51.324;12.344;2023-01-24T11:42:13;1.70;1.00
2825;DHT22;1420;51.324;12.344;2023-01-24T11:44:53;1.70;1.00
2825;DHT22;1420;51.324;12.344;2023-01-24T11:47:18;1.80;99.90
2825;DHT22;1420;51.324;12.344;2023-01-24T11:49:51;1.70;1.00
2825;DHT22;1420;51.324;12.344;2023-01-24T11:52:31;1.70;1.00
2825;DHT22;1420;51.324;12.344;2023-01-24T11:55:07;1.60;99.90
2825;DHT22;1420;51.324;12.344;2023-01-24T11:57:35;1.70;1.00
2825;DHT22;1420;51.324;12.344;2023-01-24T12:00:14;1.80;1.00
2825;DHT22;1420;51.324;12.344;2023-01-24T12:02:59;1.80;99.90
2825;DHT22;1420;51.324;12.344;2023-01-24T12:05:40;1.90;99.90
2825;DHT22;1420;51.324;12.344;2023-01-24T12:08:17;1.60;99.90
2825;DHT22;1420;51.324;12.344;2023-01-24T12:13:35;1.60;99.90
2825;DHT22;1420;51.324;12.344;2023-01-24T12:16:24;1.80;99.90
2825;DHT22;1420;51.324;12.344;2023-01-24T12:18:57;1.90;99.90
2825;DHT22;1420;51.324;12.344;2023-01-24T12:21:20;1.70;99.90
2825;DHT22;1420;51.324;12.344;2023-01-24T12:24:26;1.80;99.90
2825;DHT22;1420;51.324;12.344;2023-01-24T12:26:36;1.70;99.90
2825;DHT22;1420;51.324;12.344;2023-01-24T12:29:22;1.60;99.90
2825;DHT22;1420;51.324;12.344;2023-01-24T12:34:41;1.70;99.90
2825;DHT22;1420;51.324;12.344;2023-01-24T12:37:12;1.60;99.90
2825;DHT22;1420;51.324;12.344;2023-01-24T12:39:42;1.70;99.90
2825;DHT22;1420;51.324;12.344;2023-01-24T12:42:13;1.60;99.90
2825;DHT22;1420;51.324;12.344;2023-01-24T12:44:41;1.50;99.90
2825;DHT22;1420;51.324;12.344;2023-01-24T12:47:34;1.50;99.90
2825;DHT22;1420;51.324;12.344;2023-01-24T12:50:11;1.50;99.90
2825;DHT22;1420;51.324;12.344;2023-01-24T12:52:40;1.50;99.90
2825;DHT22;1420;51.324;12.344;2023-01-24T12:55:22;1.40;99.90
2825;DHT22;1420;51.324;12.344;2023-01-24T12:57:50;1.50;99.90
2825;DHT22;1420;51.324;12.344;2023-01-24T13:00:18;1.50;99.90
2825;DHT22;1420;51.324;12.344;2023-01-24T13:05:43;1.50;99.90
2825;DHT22;1420;51.324;12.344;2023-01-24T13:08:16;1.60;99.90
2825;DHT22;1420;51.324;12.344;2023-01-24T13:10:46;1.80;99.90
2825;DHT22;1420;51.324;12.344;2023-01-24T13:13:19;1.80;99.90
2825;DHT22;1420;51.324;12.344;2023-01-24T13:16:04;1.70;99.90
2825;DHT22;1420;51.324;12.344;2023-01-24T13:18:42;1.70;99.90
2825;DHT22;1420;51.324;12.344;2023-01-24T13:21:18;1.70;99.90
2825;DHT22;1420;51.324;12.344;2023-01-24T13:24:10;1.70;99.90
2825;DHT22;1420;51.324;12.344;2023-01-24T13:26:42;1.70;99.90
2825;DHT22;1420;51.324;12.344;2023-01-24T13:29:13;1.70;99.90
2825;DHT22;1420;51.324;12.344;2023-01-24T13:32:16;1.70;99.90
2825;DHT22;1420;51.324;12.344;2023-01-24T13:34:29;1.70;99.90
2825;DHT22;1420;51.324;12.344;2023-01-24T13:36:54;1.50;99.90
2825;DHT22;1420;51.324;12.344;2023-01-24T13:39:29;1.50;99.90
2825;DHT22;1420;51.324;12.344;2023-01-24T13:42:21;1.70;99.90
2825;DHT22;1420;51.324;12.344;2023-01-24T13:44:49;1.70;99.90
2825;DHT22;1420;51.324;12.344;2023-01-24T13:47:26;1.60;99.90
2825;DHT22;1420;51.324;12.344;2023-01-24T13:50:11;1.50;99.90
2825;DHT22;1420;51.324;12.344;2023-01-24T13:52:39;1.60;99.90
2825;DHT22;1420;51.324;12.344;2023-01-24T13:55:58;1.60;99.90
2825;DHT22;1420;51.324;12.344;2023-01-24T14:00:57;1.60;99.90
2825;DHT22;1420;51.324;12.344;2023-01-24T14:03:28;1.60;99.90
2825;DHT22;1420;51.324;12.344;2023-01-24T14:06:03;1.60;99.90
2825;DHT22;1420;51.324;12.344;2023-01-24T14:08:35;1.60;99.90
2825;DHT22;1420;51.324;12.344;2023-01-24T14:11:20;1.60;99.90
2825;DHT22;1420;51.324;12.344;2023-01-24T14:13:57;1.60;99.90
2825;DHT22;1420;51.324;12.344;2023-01-24T14:16:54;1.60;99.90
2825;DHT22;1420;51.324;12.344;2023-01-24T14:19:24;1.40;99.90
2825;DHT22;1420;51.324;12.344;2023-01-24T14:21:51;1.40;99.90
2825;DHT22;1420;51.324;12.344;2023-01-24T14:24:25;1.50;99.90
2825;DHT22;1420;51.324;12.344;2023-01-24T14:26:52;1.50;99.90
2825;DHT22;1420;51.324;12.344;2023-01-24T14:29:18;1.40;99.90
2825;DHT22;1420;51.324;12.344;2023-01-24T14:31:46;1.30;99.90
2825;DHT22;1420;51.324;12.344;2023-01-24T14:34:31;1.40;99.90
2825;DHT22;1420;51.324;12.344;2023-01-24T14:37:01;1.40;99.90
2825;DHT22;1420;51.324;12.344;2023-01-24T14:39:26;1.40;99.90
2825;DHT22;1420;51.324;12.344;2023-01-24T14:41:56;1.40;99.90
2825;DHT22;1420;51.324;12.344;2023-01-24T14:44:24;1.50;99.90
2825;DHT22;1420;51.324;12.344;2023-01-24T14:47:00;1.40;99.90
2825;DHT22;1420;51.324;12.344;2023-01-24T14:49:28;1.50;99.90
2825;DHT22;1420;51.324;12.344;2023-01-24T14:51:54;1.40;99.90
2825;DHT22;1420;51.324;12.344;2023-01-24T14:54:22;1.40;99.90
2825;DHT22;1420;51.324;12.344;2023-01-24T14:56:49;1.50;99.90
2825;DHT22;1420;51.324;12.344;2023-01-24T14:59:17;1.50;99.90
2825;DHT22;1420;51.324;12.344;2023-01-24T15:01:45;1.50;99.90
2825;DHT22;1420;51.324;12.344;2023-01-24T15:04:19;1.50;99.90
2825;DHT22;1420;51.324;12.344;2023-01-24T15:06:45;1.40;99.90
2825;DHT22;1420;51.324;12.344;2023-01-24T15:09:12;1.40;99.90
2825;DHT22;1420;51.324;12.344;2023-01-24T15:11:39;1.50;99.90
2825;DHT22;1420;51.324;12.344;2023-01-24T15:14:12;1.50;99.90
2825;DHT22;1420;51.324;12.344;2023-01-24T15:16:37;1.60;99.90
2825;DHT22;1420;51.324;12.344;2023-01-24T15:19:04;1.40;99.90
2825;DHT22;1420;51.324;12.344;2023-01-24T15:21:37;1.40;99.90
2825;DHT22;1420;51.324;12.344;2023-01-24T15:24:12;1.40;99.90
2825;DHT22;1420;51.324;12.344;2023-01-24T15:26:35;1.40;99.90
2825;DHT22;1420;51.324;12.344;2023-01-24T15:31:40;1.50;99.90
2825;DHT22;1420;51.324;12.344;2023-01-24T15:34:16;1.50;99.90
2825;DHT22;1420;51.324;12.344;2023-01-24T15:36:45;1.40;99.90
2825;DHT22;1420;51.324;12.344;2023-01-24T15:39:13;1.40;99.90
2825;DHT22;1420;51.324;12.344;2023-01-24T15:41:40;1.40;99.90
2825;DHT22;1420;51.324;12.344;2023-01-24T15:44:13;1.30;99.90
2825;DHT22;1420;51.324;12.344;2023-01-24T15:46:42;1.30;99.90
2825;DHT22;1420;51.324;12.344;2023-01-24T15:49:35;1.30;99.90
2825;DHT22;1420;51.324;12.344;2023-01-24T15:52:19;1.30;99.90
2825;DHT22;1420;51.324;12.344;2023-01-24T15:54:49;1.30;99.90
2825;DHT22;1420;51.324;12.344;2023-01-24T15:57:17;1.30;99.90
2825;DHT22;1420;51.324;12.344;2023-01-24T15:59:44;1.30;99.90
2825;DHT22;1420;51.324;12.344;2023-01-24T16:02:12;1.30;99.90
2825;DHT22;1420;51.324;12.344;2023-01-24T16:04:38;1.20;99.90
2825;DHT22;1420;51.324;12.344;2023-01-24T16:07:06;1.30;99.90
2825;DHT22;1420;51.324;12.344;2023-01-24T16:09:34;1.30;99.90
2825;DHT22;1420;51.324;12.344;2023-01-24T16:12:02;1.30;99.90
2825;DHT22;1420;51.324;12.344;2023-01-24T16:14:30;1.30;99.90
2825;DHT22;1420;51.324;12.344;2023-01-24T16:16:58;1.30;99.90
2825;DHT22;1420;51.324;12.344;2023-01-24T16:19:24;1.30;99.90
2825;DHT22;1420;51.324;12.344;2023-01-24T16:21:51;1.30;99.90
2825;DHT22;1420;51.324;12.344;2023-01-24T16:24:18;1.30;99.90
2825;DHT22;1420;51.324;12.344;2023-01-24T16:26:47;1.30;99.90
2825;DHT22;1420;51.324;12.344;2023-01-24T16:29:17;1.40;99.90
2825;DHT22;1420;51.324;12.344;2023-01-24T16:31:44;1.30;99.90
2825;DHT22;1420;51.324;12.344;2023-01-24T16:34:12;1.40;99.90
2825;DHT22;1420;51.324;12.344;2023-01-24T16:36:40;1.40;99.90
2825;DHT22;1420;51.324;12.344;2023-01-24T16:39:09;1.40;99.90
2825;DHT22;1420;51.324;12.344;2023-01-24T16:41:35;1.30;99.90
2825;DHT22;1420;51.324;12.344;2023-01-24T16:44:03;1.40;99.90
2825;DHT22;1420;51.324;12.344;2023-01-24T16:46:30;1.40;99.90